San Lorenzo, CA (94580)

6:40 AM PDT on June 30, 2015 (GMT -0700)
KCASANLO2 | | Change Station
CLOSE
Current Station
Personal Weather Station
Location: San Lorenzo, CA
Elevation: 13 ft
Nearby Weather Stations

Elev 13 ft 37.67 °N, 122.14 °W | Updated 1 second ago

Clear
Clear
61.0 °F
Feels Like 61.0 °F
N
0.0
Wind Variable Wind from NNE
Gusts 1.0 mph

Today
High -- | Low -- °F
--% Chance of Precip.
Yesterday
High -- | Low -- °F
Precip. -- in
5:50 AM 8:34 PM
Waxing Gibbous, 97% visible
Pressure 29.90 in
Visibility 10.0 miles
Clouds Few 600 ft
Mostly Cloudy 25000 ft
Dew Point 59 °F
Humidity 93%
Rainfall 0.00 in
Snow Depth Not available.
UV 0 out of 12
Pollen 5.10 out of 12
Air Quality Not available.
Flu Activity Sporadic
METAR KOAK 301253Z 30006KT 10SM FEW006 BKN250 14/12 A2990 RMK AO2 SLP125 T01390122

More Conditions Fewer Conditions

Pressure 29.90 in
Visibility 10.0 miles
Clouds Few 600 ft
Mostly Cloudy 25000 ft
Dew Point 59 °F
Humidity 93%
Rainfall 0.00 in
Snow Depth Not available.
UV 0 out of 12
Pollen 5.10 out of 12
Air Quality Not available.
Flu Activity Sporadic
METAR KOAK 301253Z 30006KT 10SM FEW006 BKN250 14/12 A2990 RMK AO2 SLP125 T01390122

More Conditions Fewer Conditions

10-Day Weather Forecast

×

Almanac

Astronomy

Jun. 30, 2015 Rise Set
Actual Time
Civil Twilight
Nautical Twilight
Astronomical Twilight
Moon
Length of Visible Light
Length of Day
Tomorrow will be .
, % of the Moon is Illuminated

Today's Extremes

State Highs State Lows

Community

WunderPhotos

Upload Photos

1,833,994 photos uploaded!

WunderBlogs® & News

Nearby

Air Quality

  Air Quality AQ Index Pollutant
Not available.

Snow Depth

Station Depth Elevation

Earthquake Activity

City Distance Mag. Time & Date
Minimum magnitude displayed is 2.5.

Coastal Water Temperatures

Place Temperature

Stations

Nearby Weather Stations

Station Location Temp. Windchill Dew Point Humidity Wind Precip. Elev Updated Type